Portada
METAR-TAF:

METAR-TAF

Aeropuertos :

Aeropuerto de Gibraltar

Gibraltar, Gibraltar

latitud: 36-09N, longitud: 005-21W, altitud: 5 m

Observación

El informe se hizo hace 47 minutos, a las 02:50 UTC
Viento 7 kt del oeste-noroeste
Temperatura 17°C
Humedad 77%
Presión 1013 hPa
Visibilidad 10 km o más

METAR: LXGB 250250Z AUTO 30007KT 9999 // FEW026/// 17/13 Q1013

Hora: 05:37 (03:37 UTC)

Pronóstico

El informe se hizo hace 13 horas y 47 minutos, a las 13:50 UTC
Pronóstico válido del 24 a las 15 UTC al 24 a las 22 UTC
Viento 10 kt del oeste
Visibilidad 10 km o más
Escasas nubes a una altura de 3000 ft
Probabilidad 30% :
Temporalmente
del 24 a las 15 UTC al 24 a las 18 UTC
Viento 15 kt del suroeste con ráfagas de 25 kt
Nubes dispersas a una altura de 2200 ft

TAF: LXGB 241350Z 2415/2422 26010KT 9999 FEW030 PROB30 TEMPO 2415/2418 23015G25KT SCT022 520002

Observaciones y pronósticos meteorológicos de más de 4000 aeropuertos (mensajes METAR y TAF).

Los puntos amarillos y rojos representan las estaciones disponibles.

Ponga el ratón en el punto deseado para ver el nombre de la estación.

Haga clic para ver las observaciones y los pronósticos meteorológicos.

Para cambiar el mapa : haga clic en los botones verdes con una cruz de color negro para hacer un zoom, en el botón verde con un guión para alejar o en las flechas verdes para mapas adyacentes.


METAR-TAF: